ATR weather

Atar International Airport
Atar, Adrar Region, Mauritania

Public forecast

Using degrees Celsius for public forecast. Weather courtesy of forecast.io.

Current aviation weather report (METAR) for Atar International Airport

Report is more than 2 hours old.

Retrieved 2019/10/19 09:00 UTC (2 hours ago):

GQPA 190900Z 35006KT 320V020 8000 NSC 28/10 Q1016

Closest aviation forecast (TAF) to Atar International Airport

Closest forecast is Nouakchott–Oumtounsy International Airport, 211.8 nm (392.2 km) SW. Retrieved 2019/10/19 06:00 UTC (5 hours ago):

TAF GQNO 190500Z 1906/2012 03014KT 7000 NSC PROB30 TEMPO 1914/1920 4000 BLDU